Aviation Digital Data Service (ADDS)

Output produced by METARs form (0540 UTC 19 March 2019)
found at http://www.aviationweather.gov/metar/data/
 
Forecast for: VEBS (BHUBANESWAR , IN)
Text: TAF VEBS 190500Z 1906/1915 25004KT 5000 HZ NSC
Forecast period: 0600 to 1100 UTC 19 March 2019
Forecast type: FROM: standard forecast or significant change
Winds: from the WSW (250 degrees) at 5 MPH (4 knots; 2.1 m/s)
Visibility: 3 miles (5 km)
Ceiling: unknown
Clouds: missing
Weather: HZ  (haze)
Text: BECMG 1911/1913 20006KT 4000 HZ
Forecast period: 1100 to 1500 UTC 19 March 2019
Forecast type: BECOMING: Conditions expected to become as follows by 1300 UTC 19 March 2019
Winds: from the SSW (200 degrees) at 7 MPH (6 knots; 3.1 m/s)
Visibility: 2.49 miles (4.01 km)
Ceiling: unknown
Clouds: missing
Weather: HZ  (haze)